Time;durP1;ratioP1;P1;durP2;ratioP2;P2;SDS_P1;SDS_P2;PMS_P1;PMS_P2;Temp;Humidity;BMP_temperature;BMP_pressure;BME280_temperature;BME280_humidity;BME280_pressure;Samples;Min_cycle;Max_cycle;Signal;HPM_P1;HPM_P2
2023/03/20 00:01:10;;;;;;;;;;;;;;;12.08;100.00;100392.97;5052855;28;19944;-61
2023/03/20 00:03:36;;;;;;;;;;;;;;;12.07;100.00;100403.69;5056724;28;20408;-61
2023/03/20 00:06:01;;;;;;;;;;;;;;;12.04;100.00;100402.00;5069048;28;20025;-60
2023/03/20 00:08:27;;;;;;;;;;;;;;;12.05;100.00;100392.19;5072818;28;20418;-61
2023/03/20 00:10:52;;;;;;;;;;;;;;;12.07;100.00;100409.03;5068826;28;20025;-61
2023/03/20 00:13:23;;;;;;;;;;;;;;;12.03;100.00;100402.91;5052330;28;20036;-61
2023/03/20 00:15:49;;;;;;;;;;;;;;;12.02;100.00;100408.31;5051787;28;19929;-60
2023/03/20 00:18:17;;;;;;;;;;;;;;;12.03;100.00;100408.25;5051598;28;19963;-61
2023/03/20 00:20:43;;;;;;;;;;;;;;;11.99;100.00;100406.63;5054054;28;20023;-61
2023/03/20 00:23:08;;;;;;;;;;;;;;;11.97;100.00;100411.13;5064101;28;19942;-61
2023/03/20 00:25:35;;;;;;;;;;;;;;;12.00;100.00;100408.34;5051521;28;19999;-61
2023/03/20 00:28:20;;;;;;;;;;;;;;;12.00;100.00;100411.03;5054553;28;19935;-61
2023/03/20 00:30:45;;;;;;;;;;;;;;;11.99;100.00;100406.63;5052276;28;19927;-61
2023/03/20 00:33:10;;;;;;;;;;;;;;;12.01;100.00;100418.09;5051705;28;20392;-60
2023/03/20 00:35:36;;;;;;;;;;;;;;;11.97;100.00;100411.13;5054923;28;19985;-60
2023/03/20 00:38:01;;;;;;;;;;;;;;;11.94;100.00;100416.56;5066670;28;19939;-61
2023/03/20 00:40:29;;;;;;;;;;;;;;;11.92;100.00;100423.72;5063775;28;20025;-61
2023/03/20 00:43:03;;;;;;;;;;;;;;;11.90;100.00;100422.88;5061269;28;20573;-60
2023/03/20 00:45:30;;;;;;;;;;;;;;;11.88;100.00;100419.41;5057686;28;19983;-61
2023/03/20 00:47:58;;;;;;;;;;;;;;;11.86;100.00;100413.25;5052005;28;20444;-61
2023/03/20 00:50:25;;;;;;;;;;;;;;;11.89;100.00;100421.16;5052263;28;20698;-61
2023/03/20 00:52:51;;;;;;;;;;;;;;;11.91;100.00;100421.97;5054325;28;19940;-60
2023/03/20 00:55:22;;;;;;;;;;;;;;;11.93;100.00;100422.78;5056877;28;19933;-60
2023/03/20 00:57:49;;;;;;;;;;;;;;;11.90;100.00;100420.22;5051775;28;20331;-61
2023/03/20 01:00:18;;;;;;;;;;;;;;;11.85;100.00;100414.16;5056320;28;20421;-61
2023/03/20 01:02:43;;;;;;;;;;;;;;;11.89;100.00;100423.81;5051789;28;19939;-61
2023/03/20 01:05:08;;;;;;;;;;;;;;;11.92;100.00;100423.72;5057650;28;20558;-61
2023/03/20 01:07:34;;;;;;;;;;;;;;;11.82;100.00;100422.25;5071691;28;19955;-60
2023/03/20 01:09:59;;;;;;;;;;;;;;;11.81;100.00;100423.19;5071987;28;19966;-60
2023/03/20 01:12:24;;;;;;;;;;;;;;;11.82;100.00;100416.94;5067952;28;19982;-61
2023/03/20 01:14:52;;;;;;;;;;;;;;;11.84;100.00;100423.09;5063011;28;19955;-60
2023/03/20 01:17:18;;;;;;;;;;;;;;;11.83;100.00;100424.88;5051541;28;20025;-60
2023/03/20 01:19:44;;;;;;;;;;;;;;;11.86;100.00;100408.78;5052990;28;19931;-61
2023/03/20 01:22:09;;;;;;;;;;;;;;;11.89;100.00;100423.81;5071462;28;19952;-60
2023/03/20 01:24:34;;;;;;;;;;;;;;;11.87;100.00;100431.00;5071461;28;20026;-61
2023/03/20 01:27:02;;;;;;;;;;;;;;;11.87;100.00;100431.00;5057977;28;19952;-60
2023/03/20 01:29:29;;;;;;;;;;;;;;;11.88;100.00;100428.28;5051254;28;19921;-61
2023/03/20 01:31:55;;;;;;;;;;;;;;;11.92;100.00;100431.72;5056752;28;19946;-60
2023/03/20 01:34:20;;;;;;;;;;;;;;;11.86;100.00;100429.25;5070245;28;19992;-60
2023/03/20 01:36:49;;;;;;;;;;;;;;;11.83;100.00;100434.66;5070895;28;19941;-60
2023/03/20 01:39:14;;;;;;;;;;;;;;;11.86;100.00;100440.78;5055704;28;19974;-61
2023/03/20 01:41:40;;;;;;;;;;;;;;;11.86;100.00;100445.25;5063745;28;19966;-60
2023/03/20 01:44:35;;;;;;;;;;;;;;;11.84;100.00;100449.75;5069856;28;19928;-61
2023/03/20 01:47:00;;;;;;;;;;;;;;;11.82;100.00;100439.13;5053929;28;19965;-61
2023/03/20 01:49:27;;;;;;;;;;;;;;;11.85;100.00;100443.47;5070705;28;19920;-60
2023/03/20 01:51:53;;;;;;;;;;;;;;;11.85;100.00;100443.47;5067272;28;19935;-61
2023/03/20 01:54:21;;;;;;;;;;;;;;;11.83;100.00;100443.53;5050988;28;19943;-61
2023/03/20 01:56:49;;;;;;;;;;;;;;;11.80;100.00;100440.09;5050849;28;19957;-61
2023/03/20 01:59:26;;;;;;;;;;;;;;;11.85;100.00;100438.16;5053600;28;19935;-61
2023/03/20 02:01:52;;;;;;;;;;;;;;;11.80;100.00;100442.75;5053804;28;19947;-61
2023/03/20 02:04:22;;;;;;;;;;;;;;;11.80;100.00;100443.63;5053182;28;19913;-61
2023/03/20 02:06:48;;;;;;;;;;;;;;;11.78;100.00;100455.25;5067712;28;20029;-61
2023/03/20 02:09:13;;;;;;;;;;;;;;;11.78;100.00;100448.13;5054666;28;20047;-60
2023/03/20 02:11:40;;;;;;;;;;;;;;;11.80;100.00;100456.97;5070670;28;19937;-61
2023/03/20 02:14:06;;;;;;;;;;;;;;;11.83;100.00;100450.66;5066904;28;19916;-60
2023/03/20 02:16:32;;;;;;;;;;;;;;;11.81;100.00;100452.50;5070608;28;19964;-61
2023/03/20 02:18:57;;;;;;;;;;;;;;;11.82;100.00;100451.59;5067008;28;19992;-61
2023/03/20 02:21:25;;;;;;;;;;;;;;;11.82;100.00;100451.59;5070273;28;19953;-60
2023/03/20 02:23:54;;;;;;;;;;;;;;;11.79;100.00;100454.34;5070294;28;20280;-61
2023/03/20 02:26:55;;;;;;;;;;;;;;;11.78;100.00;100455.25;5070238;28;19983;-61
2023/03/20 02:29:29;;;;;;;;;;;;;;;11.79;100.00;100451.69;5007266;28;20042;-61
2023/03/20 02:32:14;;;;;;;;;;;;;;;11.77;100.00;100458.84;5059136;28;19931;-60
2023/03/20 02:34:42;;;;;;;;;;;;;;;11.76;100.00;100454.44;5059942;28;19939;-60
2023/03/20 02:37:26;;;;;;;;;;;;;;;11.77;100.00;100458.84;5056744;28;19939;-61
2023/03/20 02:40:15;;;;;;;;;;;;;;;11.77;100.00;100466.84;5066620;28;19938;-61
2023/03/20 02:42:52;;;;;;;;;;;;;;;11.81;100.00;100471.16;5060756;28;19920;-60
2023/03/20 02:45:25;;;;;;;;;;;;;;;11.76;100.00;100473.09;5058472;28;19966;-60
2023/03/20 02:48:14;;;;;;;;;;;;;;;11.77;100.00;100478.38;5049890;28;19923;-60
2023/03/20 02:50:51;;;;;;;;;;;;;;;11.77;100.00;100467.72;5054385;28;20029;-60
2023/03/20 02:53:52;;;;;;;;;;;;;;;11.73;100.00;100466.06;5068971;28;19923;-60
2023/03/20 02:56:29;;;;;;;;;;;;;;;11.76;100.00;100470.44;4987937;28;20047;-60
2023/03/20 02:59:01;;;;;;;;;;;;;;;11.72;100.00;100461.66;5041998;28;19940;-60
2023/03/20 03:01:29;;;;;;;;;;;;;;;11.70;100.00;100474.16;5052442;28;19955;-61
2023/03/20 03:03:55;;;;;;;;;;;;;;;11.69;100.00;100476.84;5049805;28;19938;-61
2023/03/20 03:06:41;;;;;;;;;;;;;;;11.62;100.00;100480.56;5068990;28;20394;-61
2023/03/20 03:09:32;;;;;;;;;;;;;;;11.65;100.00;100472.53;5063858;28;19954;-61
2023/03/20 03:12:02;;;;;;;;;;;;;;;11.63;100.00;100477.00;5047533;28;19937;-61
2023/03/20 03:14:42;;;;;;;;;;;;;;;11.58;100.00;100477.13;5050186;28;19934;-61
2023/03/20 03:17:09;;;;;;;;;;;;;;;11.64;100.00;100484.13;5049661;28;19913;-62
2023/03/20 03:19:35;;;;;;;;;;;;;;;11.66;100.00;100479.63;5049502;28;19928;-61
2023/03/20 03:22:01;;;;;;;;;;;;;;;11.62;100.00;100472.59;5061791;28;19934;-60
2023/03/20 03:24:37;;;;;;;;;;;;;;;11.59;100.00;100488.66;5069627;28;19962;-60
2023/03/20 03:27:06;;;;;;;;;;;;;;;11.61;100.00;100485.03;5069660;28;19916;-60
2023/03/20 03:29:38;;;;;;;;;;;;;;;11.63;100.00;100477.91;5067566;28;19957;-60
2023/03/20 03:32:06;;;;;;;;;;;;;;;11.61;100.00;100486.84;5067636;28;19936;-60
2023/03/20 03:34:32;;;;;;;;;;;;;;;11.60;100.00;100485.06;5069166;28;20368;-60
2023/03/20 03:37:03;;;;;;;;;;;;;;;11.58;100.00;100486.94;5061686;28;20295;-60
2023/03/20 03:39:54;;;;;;;;;;;;;;;11.57;100.00;100480.72;5069488;28;19917;-61
2023/03/20 03:42:26;;;;;;;;;;;;;;;11.59;100.00;100472.69;5029884;28;20420;-60
2023/03/20 03:45:10;;;;;;;;;;;;;;;11.59;100.00;100476.22;5058502;28;19936;-60
2023/03/20 03:47:54;;;;;;;;;;;;;;;11.61;100.00;100476.19;5065575;28;19917;-60
2023/03/20 03:50:25;;;;;;;;;;;;;;;11.59;100.00;100476.22;5047322;28;19947;-60
2023/03/20 03:52:52;;;;;;;;;;;;;;;11.63;100.00;100474.34;5047125;28;20003;-61
2023/03/20 03:55:20;;;;;;;;;;;;;;;11.58;100.00;100478.94;5049280;28;20128;-60
2023/03/20 03:57:49;;;;;;;;;;;;;;;11.59;100.00;100480.69;5047506;28;20625;-60
2023/03/20 04:00:17;;;;;;;;;;;;;;;11.61;100.00;100482.38;5051066;28;19959;-60
2023/03/20 04:02:44;;;;;;;;;;;;;;;11.62;100.00;100477.91;5049256;28;19921;-60
2023/03/20 04:05:10;;;;;;;;;;;;;;;11.63;100.00;100485.00;5058572;28;20000;-60
2023/03/20 04:07:36;;;;;;;;;;;;;;;11.64;100.00;100477.00;5069625;28;19919;-60
2023/03/20 04:10:01;;;;;;;;;;;;;;;11.64;100.00;100482.34;5061523;28;20401;-60
2023/03/20 04:12:26;;;;;;;;;;;;;;;11.62;100.00;100483.25;5052995;28;19928;-60
2023/03/20 04:14:52;;;;;;;;;;;;;;;11.63;100.00;100485.91;5055503;28;20012;-61
2023/03/20 04:17:17;;;;;;;;;;;;;;;11.65;100.00;100494.72;5065128;28;20001;-60
2023/03/20 04:19:42;;;;;;;;;;;;;;;11.64;100.00;100495.66;5070605;28;19927;-61
2023/03/20 04:22:07;;;;;;;;;;;;;;;11.64;100.00;100500.09;5052822;28;19924;-60
2023/03/20 04:24:33;;;;;;;;;;;;;;;11.64;100.00;100503.66;5052510;28;19934;-61
2023/03/20 04:26:58;;;;;;;;;;;;;;;11.62;100.00;100510.78;5054931;28;19947;-61
2023/03/20 04:29:23;;;;;;;;;;;;;;;11.64;100.00;100508.09;5052215;28;19996;-61
2023/03/20 04:31:49;;;;;;;;;;;;;;;11.67;100.00;100518.66;5054929;28;20011;-61
2023/03/20 04:34:15;;;;;;;;;;;;;;;11.67;100.00;100518.66;5052383;28;19916;-61
2023/03/20 04:36:40;;;;;;;;;;;;;;;11.65;100.00;100520.47;5055785;28;20292;-61
2023/03/20 04:39:06;;;;;;;;;;;;;;;11.65;100.00;100518.72;5068604;28;19941;-61
2023/03/20 04:41:31;;;;;;;;;;;;;;;11.64;100.00;100503.66;5072360;28;19925;-60
2023/03/20 04:43:56;;;;;;;;;;;;;;;11.58;100.00;100503.78;5067979;28;20016;-59
2023/03/20 04:46:21;;;;;;;;;;;;;;;11.53;100.00;100500.38;5071195;28;19983;-60
2023/03/20 04:48:47;;;;;;;;;;;;;;;11.53;100.00;100494.19;5070887;28;19983;-60
2023/03/20 04:51:12;;;;;;;;;;;;;;;11.50;100.00;100494.25;5057191;28;20582;-60
2023/03/20 04:53:37;;;;;;;;;;;;;;;11.50;100.00;100500.47;5052043;28;19959;-60
2023/03/20 04:56:03;;;;;;;;;;;;;;;11.48;100.00;100504.94;5056172;28;19947;-60
2023/03/20 04:58:28;;;;;;;;;;;;;;;11.53;100.00;100499.50;5071475;28;19917;-60
2023/03/20 05:00:53;;;;;;;;;;;;;;;11.56;100.00;100500.31;5072006;28;19923;-60
2023/03/20 05:03:18;;;;;;;;;;;;;;;11.62;100.00;100499.22;5055938;28;19937;-60
2023/03/20 05:05:44;;;;;;;;;;;;;;;11.62;100.00;100494.78;5065653;28;20289;-60
2023/03/20 05:08:09;;;;;;;;;;;;;;;11.64;100.00;100502.75;5067604;28;20039;-60
2023/03/20 05:10:35;;;;;;;;;;;;;;;11.64;100.00;100514.31;5071446;28;19965;-60
2023/03/20 05:13:00;;;;;;;;;;;;;;;11.64;100.00;100508.09;5071378;28;19991;-60
2023/03/20 05:15:25;;;;;;;;;;;;;;;11.63;100.00;100509.00;5036638;28;19982;-60
2023/03/20 05:17:51;;;;;;;;;;;;;;;11.65;100.00;100505.38;5051605;28;19930;-60
2023/03/20 05:20:17;;;;;;;;;;;;;;;11.67;100.00;100502.66;5053760;28;20689;-60
2023/03/20 05:22:42;;;;;;;;;;;;;;;11.66;100.00;100507.13;5051533;28;19917;-60
2023/03/20 05:25:07;;;;;;;;;;;;;;;11.63;100.00;100517.88;5051359;28;19927;-60
2023/03/20 05:27:32;;;;;;;;;;;;;;;11.61;100.00;100508.16;5051488;28;19916;-60
2023/03/20 05:29:58;;;;;;;;;;;;;;;11.61;100.00;100508.16;5060743;28;19950;-60
2023/03/20 05:32:23;;;;;;;;;;;;;;;11.59;100.00;100510.88;5070156;28;19912;-60
2023/03/20 05:34:48;;;;;;;;;;;;;;;11.58;100.00;100508.25;5067227;28;20404;-60
2023/03/20 05:37:14;;;;;;;;;;;;;;;11.59;100.00;100508.19;5057881;28;19988;-60
2023/03/20 05:39:40;;;;;;;;;;;;;;;11.61;100.00;100503.69;5070244;28;20437;-60
2023/03/20 05:42:05;;;;;;;;;;;;;;;11.59;100.00;100509.97;5059507;28;19927;-60
2023/03/20 05:44:31;;;;;;;;;;;;;;;11.51;100.00;100512.00;5068439;28;19932;-60
2023/03/20 05:46:56;;;;;;;;;;;;;;;11.44;100.00;100515.75;5063953;28;19970;-60
2023/03/20 05:49:21;;;;;;;;;;;;;;;11.36;100.00;100515.09;5069198;28;19920;-60
2023/03/20 05:51:46;;;;;;;;;;;;;;;11.34;100.00;100520.47;5070451;28;19939;-60
2023/03/20 05:54:12;;;;;;;;;;;;;;;11.38;100.00;100527.44;5068321;28;20454;-60
2023/03/20 05:56:37;;;;;;;;;;;;;;;11.33;100.00;100524.06;5070919;28;19927;-60
2023/03/20 05:59:02;;;;;;;;;;;;;;;11.32;100.00;100526.72;5067781;28;19959;-60
2023/03/20 06:01:28;;;;;;;;;;;;;;;11.38;100.00;100526.56;5043938;28;19921;-60
2023/03/20 06:03:53;;;;;;;;;;;;;;;11.39;100.00;100528.31;5050436;28;20288;-60
2023/03/20 06:06:18;;;;;;;;;;;;;;;11.45;100.00;100534.34;5068141;28;19931;-60
2023/03/20 06:08:43;;;;;;;;;;;;;;;11.53;100.00;100540.31;5069658;28;20026;-60
2023/03/20 06:11:09;;;;;;;;;;;;;;;11.65;100.00;100540.03;5070229;28;19949;-60
2023/03/20 06:13:34;;;;;;;;;;;;;;;11.77;100.00;100546.78;5070390;28;19955;-60
2023/03/20 06:16:00;;;;;;;;;;;;;;;11.84;100.00;100545.69;5067835;28;19928;-60
2023/03/20 06:18:25;;;;;;;;;;;;;;;11.94;100.00;100544.50;5050706;28;19932;-60
2023/03/20 06:20:55;;;;;;;;;;;;;;;12.01;100.00;100545.22;5050235;28;19943;-60
2023/03/20 06:23:20;;;;;;;;;;;;;;;12.08;100.00;100552.97;5052871;28;19938;-60
2023/03/20 06:25:45;;;;;;;;;;;;;;;12.04;100.00;100564.66;5050369;28;20315;-60
2023/03/20 06:28:11;;;;;;;;;;;;;;;12.06;100.00;100576.13;5050233;28;19933;-60
2023/03/20 06:30:36;;;;;;;;;;;;;;;12.08;100.00;100563.63;5050114;28;20037;-60
2023/03/20 06:33:02;;;;;;;;;;;;;;;12.10;100.00;100574.25;5067927;28;19944;-60
2023/03/20 06:35:30;;;;;;;;;;;;;;;12.02;100.00;100570.94;5070285;28;19929;-60
2023/03/20 06:37:55;;;;;;;;;;;;;;;12.00;100.00;100578.09;5058324;28;19938;-60
2023/03/20 06:40:21;;;;;;;;;;;;;;;11.93;100.00;100572.97;5061452;28;19978;-61
2023/03/20 06:42:46;;;;;;;;;;;;;;;11.87;100.00;100577.59;5066873;28;20412;-60
2023/03/20 06:45:12;;;;;;;;;;;;;;;11.87;100.00;100582.94;5049861;28;20005;-59
2023/03/20 06:47:37;;;;;;;;;;;;;;;11.85;100.00;100585.63;5051541;28;19932;-60
2023/03/20 06:50:02;;;;;;;;;;;;;;;11.92;100.00;100594.31;5056000;28;19928;-60
2023/03/20 06:52:28;;;;;;;;;;;;;;;11.86;100.00;100595.38;5049908;28;19994;-60
2023/03/20 06:54:55;;;;;;;;;;;;;;;11.91;100.00;100588.13;5058944;28;19932;-60
2023/03/20 06:57:21;;;;;;;;;;;;;;;11.93;100.00;100598.72;5070082;28;19912;-60
2023/03/20 06:59:46;;;;;;;;;;;;;;;11.96;100.00;100598.63;5068116;28;20036;-60
2023/03/20 07:02:12;;;;;;;;;;;;;;;11.96;100.00;100603.97;5069718;28;20003;-61
2023/03/20 07:04:37;;;;;;;;;;;;;;;12.01;100.00;100607.38;5069722;28;19923;-60
2023/03/20 07:07:03;;;;;;;;;;;;;;;12.08;100.00;100608.97;5067768;28;20025;-60
2023/03/20 07:09:28;;;;;;;;;;;;;;;12.04;100.00;100607.31;5049806;28;19994;-60
2023/03/20 07:11:53;;;;;;;;;;;;;;;12.20;100.00;100608.59;5049614;28;20432;-60
2023/03/20 07:14:19;;;;;;;;;;;;;;;12.35;100.00;100616.16;5049605;28;19935;-60
2023/03/20 07:16:44;;;;;;;;;;;;;;;12.46;100.00;100614.03;5051905;28;19948;-60
2023/03/20 07:19:10;;;;;;;;;;;;;;;12.55;99.07;100608.38;5049480;28;20022;-60
2023/03/20 07:21:35;;;;;;;;;;;;;;;12.61;98.25;100602.88;5049520;28;20403;-60
2023/03/20 07:24:00;;;;;;;;;;;;;;;12.72;97.26;100611.41;5065240;28;20299;-60
2023/03/20 07:26:26;;;;;;;;;;;;;;;12.74;96.70;100601.56;5069298;28;19962;-60
2023/03/20 07:28:51;;;;;;;;;;;;;;;12.80;95.88;100608.50;5069320;28;20076;-60
2023/03/20 07:31:20;;;;;;;;;;;;;;;12.73;94.46;100598.94;5060167;28;19934;-60
2023/03/20 07:33:46;;;;;;;;;;;;;;;12.67;94.29;100593.78;5050464;28;19933;-60
2023/03/20 07:36:11;;;;;;;;;;;;;;;12.57;94.14;100595.88;5049504;28;19917;-60
2023/03/20 07:38:36;;;;;;;;;;;;;;;12.62;93.77;100593.09;5068322;28;19984;-60
2023/03/20 07:41:02;;;;;;;;;;;;;;;12.62;92.68;100590.41;5064857;28;20004;-60
2023/03/20 07:43:27;;;;;;;;;;;;;;;12.65;90.96;100588.50;5051597;28;20422;-60
2023/03/20 07:45:52;;;;;;;;;;;;;;;12.77;90.53;100592.56;5053184;28;19948;-61
2023/03/20 07:48:17;;;;;;;;;;;;;;;12.90;89.35;100599.25;5053478;28;19947;-60
2023/03/20 07:50:43;;;;;;;;;;;;;;;13.09;88.78;100600.44;5055820;28;19994;-60
2023/03/20 07:53:08;;;;;;;;;;;;;;;13.51;87.76;100593.63;5068802;28;20161;-60
2023/03/20 07:55:33;;;;;;;;;;;;;;;14.49;85.19;100597.97;5073210;28;20052;-60
2023/03/20 07:57:59;;;;;;;;;;;;;;;15.66;81.70;100584.09;5070292;28;19966;-61
2023/03/20 08:00:24;;;;;;;;;;;;;;;17.12;74.30;100582.47;5052974;28;20011;-61
2023/03/20 08:02:49;;;;;;;;;;;;;;;18.62;64.43;100586.09;5053230;28;20351;-61
2023/03/20 08:05:15;;;;;;;;;;;;;;;19.57;56.19;100581.38;5067212;28;19957;-61
2023/03/20 08:07:40;;;;;;;;;;;;;;;19.67;54.39;100584.38;5072840;28;19933;-61
2023/03/20 08:10:06;;;;;;;;;;;;;;;20.34;53.55;100592.78;5070891;28;20011;-61
2023/03/20 08:12:31;;;;;;;;;;;;;;;20.76;51.49;100607.09;5073202;28;19986;-60
2023/03/20 08:14:56;;;;;;;;;;;;;;;21.03;49.87;100595.47;5072319;28;20464;-59
2023/03/20 08:17:21;;;;;;;;;;;;;;;21.49;48.26;100600.41;5072103;28;20021;-60
2023/03/20 08:19:47;;;;;;;;;;;;;;;21.78;47.57;100601.13;5062865;28;19928;-60
2023/03/20 08:22:12;;;;;;;;;;;;;;;21.59;47.11;100611.47;5052365;28;20371;-60
2023/03/20 08:24:37;;;;;;;;;;;;;;;21.48;46.68;100609.47;5055087;28;19917;-60
2023/03/20 08:27:03;;;;;;;;;;;;;;;20.59;47.59;100612.72;5052086;28;20405;-59
2023/03/20 08:29:28;;;;;;;;;;;;;;;20.34;49.35;100619.78;5052164;28;19948;-60
2023/03/20 08:31:54;;;;;;;;;;;;;;;20.79;50.04;100616.84;5052707;28;19927;-60
2023/03/20 08:34:20;;;;;;;;;;;;;;;21.26;48.14;100621.88;5059125;28;19936;-60
2023/03/20 08:36:45;;;;;;;;;;;;;;;21.62;47.46;100620.25;5072427;28;19936;-61
2023/03/20 08:39:10;;;;;;;;;;;;;;;21.00;47.96;100622.72;5071972;28;19982;-60
2023/03/20 08:41:37;;;;;;;;;;;;;;;21.04;49.11;100619.72;5054064;28;20030;-60
2023/03/20 08:44:03;;;;;;;;;;;;;;;21.38;47.71;100615.66;5051306;28;19927;-61
2023/03/20 08:46:28;;;;;;;;;;;;;;;21.42;48.37;100622.56;5050998;28;20486;-61
2023/03/20 08:48:53;;;;;;;;;;;;;;;20.85;47.43;100625.44;5053772;28;19956;-61
2023/03/20 08:51:19;;;;;;;;;;;;;;;20.19;48.51;100621.63;5050769;28;19927;-60
2023/03/20 08:53:44;;;;;;;;;;;;;;;20.06;50.62;100628.72;5050946;28;20410;-60
2023/03/20 08:56:10;;;;;;;;;;;;;;;19.60;51.52;100627.09;5045004;28;19979;-60
2023/03/20 08:58:36;;;;;;;;;;;;;;;18.81;52.76;100635.31;5071697;28;19938;-60
2023/03/20 09:01:05;;;;;;;;;;;;;;;17.82;52.23;100629.06;5066104;28;20020;-60
2023/03/20 09:03:31;;;;;;;;;;;;;;;17.76;55.29;100623.16;5071839;28;19936;-60
2023/03/20 09:05:56;;;;;;;;;;;;;;;17.53;57.18;100632.38;5071544;28;19987;-60
2023/03/20 09:08:21;;;;;;;;;;;;;;;17.21;59.42;100633.13;5063852;28;19947;-60
2023/03/20 09:10:50;;;;;;;;;;;;;;;16.78;60.30;100625.41;5051753;28;19917;-60
2023/03/20 09:13:15;;;;;;;;;;;;;;;16.38;61.55;100623.69;5051938;28;19963;-60
2023/03/20 09:15:41;;;;;;;;;;;;;;;16.20;64.30;100627.25;5055753;28;19934;-61
2023/03/20 09:18:06;;;;;;;;;;;;;;;16.06;63.78;100634.19;5071757;28;19932;-61
2023/03/20 09:20:31;;;;;;;;;;;;;;;15.95;64.29;100637.31;5071748;28;20694;-61
2023/03/20 09:22:57;;;;;;;;;;;;;;;16.04;66.42;100630.69;5069047;28;19940;-61
2023/03/20 09:25:22;;;;;;;;;;;;;;;15.94;65.24;100634.72;5051529;28;19940;-61
2023/03/20 09:27:54;;;;;;;;;;;;;;;15.87;65.05;100639.50;5051258;28;20343;-61
2023/03/20 09:30:19;;;;;;;;;;;;;;;15.71;66.09;100636.63;5066781;28;19955;-61
2023/03/20 09:32:44;;;;;;;;;;;;;;;15.54;66.17;100635.59;5071286;28;19932;-61
2023/03/20 09:35:09;;;;;;;;;;;;;;;14.92;65.75;100645.34;5067917;28;20398;-60
2023/03/20 09:37:35;;;;;;;;;;;;;;;15.11;67.97;100657.03;5071149;28;19992;-61
2023/03/20 09:40:00;;;;;;;;;;;;;;;15.44;68.44;100651.19;5054653;28;19955;-61
2023/03/20 09:42:44;;;;;;;;;;;;;;;15.57;66.73;100641.69;5053259;28;20023;-61
2023/03/20 09:45:10;;;;;;;;;;;;;;;15.86;67.64;100647.59;5070716;28;19984;-61
2023/03/20 09:47:54;;;;;;;;;;;;;;;16.04;65.33;100649.47;5061236;28;20462;-61
2023/03/20 09:50:42;;;;;;;;;;;;;;;16.41;64.64;100650.41;5051073;28;20470;-61
2023/03/20 09:53:19;;;;;;;;;;;;;;;17.44;63.79;100642.72;5053484;28;19937;-61
2023/03/20 09:55:45;;;;;;;;;;;;;;;18.75;57.85;100649.13;5051124;28;19925;-61
2023/03/20 09:58:30;;;;;;;;;;;;;;;18.98;52.86;100644.19;5051011;28;20645;-61
2023/03/20 10:00:57;;;;;;;;;;;;;;;18.74;52.95;100642.00;5051691;28;20050;-61
2023/03/20 10:03:48;;;;;;;;;;;;;;;18.38;52.88;100639.50;5049847;28;20266;-61
2023/03/20 10:06:15;;;;;;;;;;;;;;;18.02;54.83;100642.31;5067980;28;19935;-61
2023/03/20 10:08:41;;;;;;;;;;;;;;;18.00;55.29;100643.38;5066558;28;19957;-61
2023/03/20 10:11:25;;;;;;;;;;;;;;;17.36;53.23;100635.03;5070787;28;20731;-61
2023/03/20 10:13:52;;;;;;;;;;;;;;;17.55;56.48;100635.00;5070549;28;19926;-60
2023/03/20 10:16:32;;;;;;;;;;;;;;;17.41;56.42;100630.31;5070509;28;19958;-61
2023/03/20 10:19:03;;;;;;;;;;;;;;;17.44;55.65;100627.47;5053423;28;19968;-60
2023/03/20 10:21:37;;;;;;;;;;;;;;;17.79;56.02;100618.44;5067315;28;19941;-61
2023/03/20 10:24:04;;;;;;;;;;;;;;;18.00;54.35;100619.16;5070033;28;19933;-60
2023/03/20 10:26:32;;;;;;;;;;;;;;;18.26;53.87;100618.63;5066789;28;20398;-61
2023/03/20 10:28:59;;;;;;;;;;;;;;;18.25;53.17;100622.28;5070074;28;19953;-60
2023/03/20 10:31:30;;;;;;;;;;;;;;;18.81;53.19;100621.84;5069055;28;19936;-60
2023/03/20 10:34:15;;;;;;;;;;;;;;;19.42;50.02;100625.47;5068120;28;19939;-60
2023/03/20 10:36:44;;;;;;;;;;;;;;;20.25;49.08;100618.53;5069530;28;20324;-60
2023/03/20 10:39:15;;;;;;;;;;;;;;;20.61;46.91;100610.78;5069579;28;19933;-60
2023/03/20 10:41:43;;;;;;;;;;;;;;;21.29;46.59;100625.25;5066437;28;19948;-61
2023/03/20 10:44:13;;;;;;;;;;;;;;;21.69;47.25;100615.28;5069325;28;19956;-60
2023/03/20 10:46:44;;;;;;;;;;;;;;;20.93;46.50;100620.41;5059096;28;19955;-60
2023/03/20 10:49:16;;;;;;;;;;;;;;;20.49;47.86;100624.22;5049897;28;20543;-60
2023/03/20 10:51:53;;;;;;;;;;;;;;;19.97;49.02;100625.69;5052638;28;20375;-61
2023/03/20 10:54:25;;;;;;;;;;;;;;;19.90;49.13;100621.66;5050244;28;19931;-60
2023/03/20 10:56:54;;;;;;;;;;;;;;;19.53;49.57;100617.59;5067777;28;19974;-60
2023/03/20 10:59:39;;;;;;;;;;;;;;;19.42;50.62;100582.31;5070018;28;19929;-60
2023/03/20 11:02:08;;;;;;;;;;;;;;;19.07;49.88;100616.72;5066545;28;20021;-61
2023/03/20 11:04:34;;;;;;;;;;;;;;;18.89;50.62;100620.47;5069477;28;20412;-60
2023/03/20 11:07:08;;;;;;;;;;;;;;;18.58;51.88;100616.88;5064772;28;19980;-60
2023/03/20 11:09:34;;;;;;;;;;;;;;;18.92;53.24;100614.88;5049834;28;19962;-60
2023/03/20 11:12:01;;;;;;;;;;;;;;;19.66;54.01;100607.81;5049957;28;19930;-61
2023/03/20 11:14:31;;;;;;;;;;;;;;;20.53;50.86;100602.31;5056145;28;19923;-60
2023/03/20 11:16:59;;;;;;;;;;;;;;;21.17;47.65;100598.16;5051067;28;19937;-60
2023/03/20 11:19:24;;;;;;;;;;;;;;;20.70;46.89;100607.50;5056521;28;19921;-60
2023/03/20 11:22:05;;;;;;;;;;;;;;;21.07;47.55;100597.03;5054244;28;19997;-60
2023/03/20 11:24:31;;;;;;;;;;;;;;;20.65;48.18;100596.13;5053904;28;19935;-60
2023/03/20 11:27:05;;;;;;;;;;;;;;;19.92;48.94;100593.59;5053887;28;19931;-60
2023/03/20 11:29:33;;;;;;;;;;;;;;;19.37;52.08;100600.59;5055896;28;19954;-60
2023/03/20 11:32:22;;;;;;;;;;;;;;;18.88;52.16;100596.28;5053747;28;20044;-60
2023/03/20 11:34:47;;;;;;;;;;;;;;;18.33;53.51;100599.31;5037845;28;19934;-60
2023/03/20 11:37:33;;;;;;;;;;;;;;;17.92;56.22;100597.16;5060838;28;20396;-60
2023/03/20 11:40:12;;;;;;;;;;;;;;;17.81;56.08;100600.41;5050585;28;19978;-60
2023/03/20 11:42:38;;;;;;;;;;;;;;;17.86;56.25;100592.97;5053609;28;20686;-60
2023/03/20 11:45:05;;;;;;;;;;;;;;;18.36;55.15;100588.41;5035413;28;20037;-60
2023/03/20 11:47:32;;;;;;;;;;;;;;;18.68;51.77;100593.84;5070730;28;19942;-61
2023/03/20 11:49:58;;;;;;;;;;;;;;;18.72;52.15;100592.69;5071826;28;19948;-60
2023/03/20 11:52:27;;;;;;;;;;;;;;;19.42;51.77;100587.69;5069440;28;19924;-60
2023/03/20 11:54:55;;;;;;;;;;;;;;;19.77;49.12;100583.72;5069522;28;20356;-60
2023/03/20 11:57:32;;;;;;;;;;;;;;;19.64;48.42;100585.44;5053181;28;20401;-60
2023/03/20 12:00:00;;;;;;;;;;;;;;;19.49;48.85;100583.66;5058064;28;19995;-60
2023/03/20 12:02:26;;;;;;;;;;;;;;;19.41;48.52;100585.94;5068991;28;19935;-60
2023/03/20 12:04:51;;;;;;;;;;;;;;;20.06;48.38;100580.09;5067865;28;20362;-61
2023/03/20 12:07:23;;;;;;;;;;;;;;;21.74;44.92;100575.22;5060748;28;19932;-60
2023/03/20 12:09:53;;;;;;;;;;;;;;;22.42;43.46;100570.38;5072566;28;19990;-60
2023/03/20 12:12:39;;;;;;;;;;;;;;;22.40;42.25;100573.19;5072193;28;20604;-60
2023/03/20 12:15:11;;;;;;;;;;;;;;;22.45;42.73;100571.00;5060236;28;19938;-60
2023/03/20 12:17:42;;;;;;;;;;;;;;;21.71;42.98;100557.31;5051980;28;19963;-59
2023/03/20 12:20:11;;;;;;;;;;;;;;;21.02;44.49;100561.28;5056431;28;19942;-60
2023/03/20 12:22:41;;;;;;;;;;;;;;;20.46;43.83;100557.72;5071843;28;20021;-60
2023/03/20 12:25:08;;;;;;;;;;;;;;;19.99;45.75;100562.53;5070505;28;20385;-60
2023/03/20 12:27:38;;;;;;;;;;;;;;;19.68;46.11;100551.91;5054041;28;19973;-60
2023/03/20 12:30:16;;;;;;;;;;;;;;;19.34;47.67;100546.81;5071350;28;19958;-60
2023/03/20 12:32:53;;;;;;;;;;;;;;;19.15;46.61;100543.44;5061613;28;19981;-59
2023/03/20 12:35:29;;;;;;;;;;;;;;;18.99;48.63;100545.31;5052052;28;20306;-61
2023/03/20 12:37:54;;;;;;;;;;;;;;;18.89;48.37;100539.59;5062022;28;20035;-61